sensor_id;sensor_type;location;lat;lon;timestamp;temperature;humidity
27226;DHT22;14732;51.074;3.788;2022-09-24T00:01:18;15.60;99.90
27226;DHT22;14732;51.074;3.788;2022-09-24T00:03:52;15.60;99.90
27226;DHT22;14732;51.074;3.788;2022-09-24T00:06:18;15.60;99.90
27226;DHT22;14732;51.074;3.788;2022-09-24T00:08:45;15.50;99.90
27226;DHT22;14732;51.074;3.788;2022-09-24T00:11:11;15.40;99.90
27226;DHT22;14732;51.074;3.788;2022-09-24T00:13:38;15.60;99.90
27226;DHT22;14732;51.074;3.788;2022-09-24T00:16:08;15.60;99.90
27226;DHT22;14732;51.074;3.788;2022-09-24T00:18:34;15.70;99.90
27226;DHT22;14732;51.074;3.788;2022-09-24T00:21:00;15.70;99.90
27226;DHT22;14732;51.074;3.788;2022-09-24T00:23:26;15.60;99.90
27226;DHT22;14732;51.074;3.788;2022-09-24T00:25:51;15.60;99.90
27226;DHT22;14732;51.074;3.788;2022-09-24T00:28:36;15.60;99.90
27226;DHT22;14732;51.074;3.788;2022-09-24T00:31:06;15.60;99.90
27226;DHT22;14732;51.074;3.788;2022-09-24T00:33:33;15.70;99.90
27226;DHT22;14732;51.074;3.788;2022-09-24T00:36:00;15.70;99.90
27226;DHT22;14732;51.074;3.788;2022-09-24T00:38:28;15.70;99.90
27226;DHT22;14732;51.074;3.788;2022-09-24T00:40:54;15.60;99.90
27226;DHT22;14732;51.074;3.788;2022-09-24T00:43:30;15.50;99.90
27226;DHT22;14732;51.074;3.788;2022-09-24T00:49:03;15.50;99.90
27226;DHT22;14732;51.074;3.788;2022-09-24T00:51:32;15.50;99.90
27226;DHT22;14732;51.074;3.788;2022-09-24T00:54:07;15.40;99.90
27226;DHT22;14732;51.074;3.788;2022-09-24T00:56:35;15.40;99.90
27226;DHT22;14732;51.074;3.788;2022-09-24T00:59:03;15.40;99.90
27226;DHT22;14732;51.074;3.788;2022-09-24T01:01:29;15.40;99.90
27226;DHT22;14732;51.074;3.788;2022-09-24T01:03:56;15.50;99.90
27226;DHT22;14732;51.074;3.788;2022-09-24T01:06:23;15.40;99.90
27226;DHT22;14732;51.074;3.788;2022-09-24T01:08:50;15.50;99.90
27226;DHT22;14732;51.074;3.788;2022-09-24T01:11:44;15.30;99.90
27226;DHT22;14732;51.074;3.788;2022-09-24T01:19:54;15.10;99.90
27226;DHT22;14732;51.074;3.788;2022-09-24T01:28:16;15.10;99.90
27226;DHT22;14732;51.074;3.788;2022-09-24T01:30:46;15.20;99.90
27226;DHT22;14732;51.074;3.788;2022-09-24T01:33:18;15.20;99.90
27226;DHT22;14732;51.074;3.788;2022-09-24T01:35:49;15.20;99.90
27226;DHT22;14732;51.074;3.788;2022-09-24T01:38:21;15.30;99.90
27226;DHT22;14732;51.074;3.788;2022-09-24T01:40:49;15.20;99.90
27226;DHT22;14732;51.074;3.788;2022-09-24T01:43:20;15.20;99.90
27226;DHT22;14732;51.074;3.788;2022-09-24T01:45:47;15.20;99.90
27226;DHT22;14732;51.074;3.788;2022-09-24T01:48:13;15.20;99.90
27226;DHT22;14732;51.074;3.788;2022-09-24T01:53:54;15.20;99.90
27226;DHT22;14732;51.074;3.788;2022-09-24T01:56:31;15.30;99.90
27226;DHT22;14732;51.074;3.788;2022-09-24T02:02:09;15.20;99.90
27226;DHT22;14732;51.074;3.788;2022-09-24T02:04:42;15.30;99.90
27226;DHT22;14732;51.074;3.788;2022-09-24T02:07:14;15.30;99.90
27226;DHT22;14732;51.074;3.788;2022-09-24T02:09:42;15.20;99.90
27226;DHT22;14732;51.074;3.788;2022-09-24T02:12:35;14.80;99.90
27226;DHT22;14732;51.074;3.788;2022-09-24T02:15:14;14.70;99.90
27226;DHT22;14732;51.074;3.788;2022-09-24T02:17:45;14.80;99.90
27226;DHT22;14732;51.074;3.788;2022-09-24T02:20:15;14.70;99.90
27226;DHT22;14732;51.074;3.788;2022-09-24T02:22:44;14.80;99.90
27226;DHT22;14732;51.074;3.788;2022-09-24T02:25:13;14.90;99.90
27226;DHT22;14732;51.074;3.788;2022-09-24T02:27:41;14.90;99.90
27226;DHT22;14732;51.074;3.788;2022-09-24T02:30:08;15.00;99.90
27226;DHT22;14732;51.074;3.788;2022-09-24T02:32:36;15.00;99.90
27226;DHT22;14732;51.074;3.788;2022-09-24T02:35:06;15.00;99.90
27226;DHT22;14732;51.074;3.788;2022-09-24T02:37:36;15.10;99.90
27226;DHT22;14732;51.074;3.788;2022-09-24T02:40:04;15.00;99.90
27226;DHT22;14732;51.074;3.788;2022-09-24T02:42:31;14.90;99.90
27226;DHT22;14732;51.074;3.788;2022-09-24T02:44:57;14.90;99.90
27226;DHT22;14732;51.074;3.788;2022-09-24T02:47:25;14.80;99.90
27226;DHT22;14732;51.074;3.788;2022-09-24T02:49:51;14.60;99.90
27226;DHT22;14732;51.074;3.788;2022-09-24T02:52:17;14.60;99.90
27226;DHT22;14732;51.074;3.788;2022-09-24T02:54:43;14.50;99.90
27226;DHT22;14732;51.074;3.788;2022-09-24T02:57:09;14.40;99.90
27226;DHT22;14732;51.074;3.788;2022-09-24T02:59:35;14.50;99.90
27226;DHT22;14732;51.074;3.788;2022-09-24T03:02:01;14.70;99.90
27226;DHT22;14732;51.074;3.788;2022-09-24T03:04:27;14.80;99.90
27226;DHT22;14732;51.074;3.788;2022-09-24T03:06:53;14.90;99.90
27226;DHT22;14732;51.074;3.788;2022-09-24T03:09:19;14.80;99.90
27226;DHT22;14732;51.074;3.788;2022-09-24T03:11:45;14.90;99.90
27226;DHT22;14732;51.074;3.788;2022-09-24T03:14:11;14.90;99.90
27226;DHT22;14732;51.074;3.788;2022-09-24T03:16:37;15.00;99.90
27226;DHT22;14732;51.074;3.788;2022-09-24T03:19:03;15.10;99.90
27226;DHT22;14732;51.074;3.788;2022-09-24T03:21:29;15.10;99.90
27226;DHT22;14732;51.074;3.788;2022-09-24T03:23:54;15.10;99.90
27226;DHT22;14732;51.074;3.788;2022-09-24T03:26:20;15.00;99.90
27226;DHT22;14732;51.074;3.788;2022-09-24T03:28:45;15.10;99.90
27226;DHT22;14732;51.074;3.788;2022-09-24T03:31:12;15.10;99.90
27226;DHT22;14732;51.074;3.788;2022-09-24T03:33:41;15.10;99.90
27226;DHT22;14732;51.074;3.788;2022-09-24T03:36:16;14.90;99.90
27226;DHT22;14732;51.074;3.788;2022-09-24T03:38:43;14.80;99.90
27226;DHT22;14732;51.074;3.788;2022-09-24T03:41:10;14.80;99.90
27226;DHT22;14732;51.074;3.788;2022-09-24T03:43:36;14.80;99.90
27226;DHT22;14732;51.074;3.788;2022-09-24T03:46:03;14.80;99.90
27226;DHT22;14732;51.074;3.788;2022-09-24T03:48:32;14.90;99.90
27226;DHT22;14732;51.074;3.788;2022-09-24T03:51:06;14.90;99.90
27226;DHT22;14732;51.074;3.788;2022-09-24T03:53:32;15.10;99.90
27226;DHT22;14732;51.074;3.788;2022-09-24T03:55:58;15.00;99.90
27226;DHT22;14732;51.074;3.788;2022-09-24T03:58:24;14.90;99.90
27226;DHT22;14732;51.074;3.788;2022-09-24T04:00:54;14.80;99.90
27226;DHT22;14732;51.074;3.788;2022-09-24T04:03:21;14.80;99.90
27226;DHT22;14732;51.074;3.788;2022-09-24T04:05:47;14.90;99.90
27226;DHT22;14732;51.074;3.788;2022-09-24T04:08:16;14.90;99.90
27226;DHT22;14732;51.074;3.788;2022-09-24T04:10:47;14.90;99.90
27226;DHT22;14732;51.074;3.788;2022-09-24T04:13:14;14.90;99.90
27226;DHT22;14732;51.074;3.788;2022-09-24T04:15:40;14.80;99.90
27226;DHT22;14732;51.074;3.788;2022-09-24T04:18:06;14.80;99.90
27226;DHT22;14732;51.074;3.788;2022-09-24T04:20:32;14.80;99.90
27226;DHT22;14732;51.074;3.788;2022-09-24T04:22:58;14.70;99.90
27226;DHT22;14732;51.074;3.788;2022-09-24T04:25:26;14.70;99.90
27226;DHT22;14732;51.074;3.788;2022-09-24T04:27:54;14.80;99.90
27226;DHT22;14732;51.074;3.788;2022-09-24T04:30:22;14.70;99.90
27226;DHT22;14732;51.074;3.788;2022-09-24T04:32:48;14.70;99.90
27226;DHT22;14732;51.074;3.788;2022-09-24T04:35:16;14.90;99.90
27226;DHT22;14732;51.074;3.788;2022-09-24T04:37:42;14.90;99.90
27226;DHT22;14732;51.074;3.788;2022-09-24T04:40:08;14.90;99.90
27226;DHT22;14732;51.074;3.788;2022-09-24T04:42:38;15.00;99.90
27226;DHT22;14732;51.074;3.788;2022-09-24T04:45:08;14.90;99.90
27226;DHT22;14732;51.074;3.788;2022-09-24T04:47:35;14.90;99.90
27226;DHT22;14732;51.074;3.788;2022-09-24T04:50:01;14.90;99.90
27226;DHT22;14732;51.074;3.788;2022-09-24T04:52:29;15.10;99.90
27226;DHT22;14732;51.074;3.788;2022-09-24T04:54:57;15.00;99.90
27226;DHT22;14732;51.074;3.788;2022-09-24T04:57:23;15.00;99.90
27226;DHT22;14732;51.074;3.788;2022-09-24T04:59:49;15.00;99.90
27226;DHT22;14732;51.074;3.788;2022-09-24T05:02:14;15.10;99.90
27226;DHT22;14732;51.074;3.788;2022-09-24T05:04:41;15.00;99.90
27226;DHT22;14732;51.074;3.788;2022-09-24T05:07:08;14.90;99.90
27226;DHT22;14732;51.074;3.788;2022-09-24T05:09:34;14.90;99.90
27226;DHT22;14732;51.074;3.788;2022-09-24T05:12:00;14.80;99.90
27226;DHT22;14732;51.074;3.788;2022-09-24T05:14:26;15.00;99.90
27226;DHT22;14732;51.074;3.788;2022-09-24T05:16:52;15.00;99.90
27226;DHT22;14732;51.074;3.788;2022-09-24T05:19:18;15.00;99.90
27226;DHT22;14732;51.074;3.788;2022-09-24T05:21:44;15.00;99.90
27226;DHT22;14732;51.074;3.788;2022-09-24T05:24:10;15.00;99.90
27226;DHT22;14732;51.074;3.788;2022-09-24T05:26:36;15.00;99.90
27226;DHT22;14732;51.074;3.788;2022-09-24T05:29:20;15.10;99.90
27226;DHT22;14732;51.074;3.788;2022-09-24T05:31:46;15.10;99.90
27226;DHT22;14732;51.074;3.788;2022-09-24T05:34:12;15.10;99.90
27226;DHT22;14732;51.074;3.788;2022-09-24T05:36:39;15.20;99.90
27226;DHT22;14732;51.074;3.788;2022-09-24T05:39:05;15.10;99.90
27226;DHT22;14732;51.074;3.788;2022-09-24T05:41:31;15.20;99.90
27226;DHT22;14732;51.074;3.788;2022-09-24T05:43:56;15.20;99.90
27226;DHT22;14732;51.074;3.788;2022-09-24T05:46:24;15.30;99.90
27226;DHT22;14732;51.074;3.788;2022-09-24T05:48:50;15.40;99.90
27226;DHT22;14732;51.074;3.788;2022-09-24T05:51:15;15.30;99.90
27226;DHT22;14732;51.074;3.788;2022-09-24T05:53:41;15.40;99.90
27226;DHT22;14732;51.074;3.788;2022-09-24T05:56:07;15.30;99.90
27226;DHT22;14732;51.074;3.788;2022-09-24T05:58:34;15.20;99.90
27226;DHT22;14732;51.074;3.788;2022-09-24T06:01:00;15.10;99.90
27226;DHT22;14732;51.074;3.788;2022-09-24T06:03:28;15.10;99.90
27226;DHT22;14732;51.074;3.788;2022-09-24T06:05:54;15.20;99.90
27226;DHT22;14732;51.074;3.788;2022-09-24T06:08:28;15.20;99.90
27226;DHT22;14732;51.074;3.788;2022-09-24T06:11:02;15.20;99.90
27226;DHT22;14732;51.074;3.788;2022-09-24T06:13:30;15.30;99.90
27226;DHT22;14732;51.074;3.788;2022-09-24T06:16:03;15.20;99.90
27226;DHT22;14732;51.074;3.788;2022-09-24T06:18:29;15.20;99.90
27226;DHT22;14732;51.074;3.788;2022-09-24T06:21:04;15.30;99.90
27226;DHT22;14732;51.074;3.788;2022-09-24T06:23:30;15.30;99.90
27226;DHT22;14732;51.074;3.788;2022-09-24T06:25:56;15.40;99.90
27226;DHT22;14732;51.074;3.788;2022-09-24T06:28:23;15.40;99.90
27226;DHT22;14732;51.074;3.788;2022-09-24T06:30:50;15.50;99.90
27226;DHT22;14732;51.074;3.788;2022-09-24T06:33:16;15.50;99.90
27226;DHT22;14732;51.074;3.788;2022-09-24T06:35:42;15.50;99.90
27226;DHT22;14732;51.074;3.788;2022-09-24T06:38:16;15.60;99.90
27226;DHT22;14732;51.074;3.788;2022-09-24T06:40:43;15.50;99.90
27226;DHT22;14732;51.074;3.788;2022-09-24T06:43:10;15.60;99.90
27226;DHT22;14732;51.074;3.788;2022-09-24T06:45:36;15.60;99.90
27226;DHT22;14732;51.074;3.788;2022-09-24T06:48:04;15.60;99.90
27226;DHT22;14732;51.074;3.788;2022-09-24T06:50:31;15.70;99.90
27226;DHT22;14732;51.074;3.788;2022-09-24T06:52:57;15.80;99.90
27226;DHT22;14732;51.074;3.788;2022-09-24T06:55:23;15.70;99.90
27226;DHT22;14732;51.074;3.788;2022-09-24T06:57:49;15.70;99.90
27226;DHT22;14732;51.074;3.788;2022-09-24T07:00:15;15.70;99.90
27226;DHT22;14732;51.074;3.788;2022-09-24T07:02:41;15.80;99.90
27226;DHT22;14732;51.074;3.788;2022-09-24T07:05:07;15.90;99.90
27226;DHT22;14732;51.074;3.788;2022-09-24T07:07:34;16.00;99.90
27226;DHT22;14732;51.074;3.788;2022-09-24T07:10:05;16.00;99.90
27226;DHT22;14732;51.074;3.788;2022-09-24T07:12:33;16.00;99.90
27226;DHT22;14732;51.074;3.788;2022-09-24T07:14:59;16.00;99.90
27226;DHT22;14732;51.074;3.788;2022-09-24T07:17:26;16.10;99.90
27226;DHT22;14732;51.074;3.788;2022-09-24T07:19:52;16.10;99.90
27226;DHT22;14732;51.074;3.788;2022-09-24T07:22:19;16.20;99.90
27226;DHT22;14732;51.074;3.788;2022-09-24T07:24:45;16.10;99.90
27226;DHT22;14732;51.074;3.788;2022-09-24T07:27:12;16.10;99.90
27226;DHT22;14732;51.074;3.788;2022-09-24T07:29:38;16.20;99.90
27226;DHT22;14732;51.074;3.788;2022-09-24T07:32:04;16.20;99.90
27226;DHT22;14732;51.074;3.788;2022-09-24T07:34:30;16.30;99.90
27226;DHT22;14732;51.074;3.788;2022-09-24T07:36:56;16.30;99.90
27226;DHT22;14732;51.074;3.788;2022-09-24T07:39:25;16.30;99.90
27226;DHT22;14732;51.074;3.788;2022-09-24T07:41:51;16.30;99.90
27226;DHT22;14732;51.074;3.788;2022-09-24T07:44:18;16.20;99.90
27226;DHT22;14732;51.074;3.788;2022-09-24T07:46:54;16.30;99.90
27226;DHT22;14732;51.074;3.788;2022-09-24T07:49:20;16.30;99.90
27226;DHT22;14732;51.074;3.788;2022-09-24T07:51:46;16.50;99.90
27226;DHT22;14732;51.074;3.788;2022-09-24T07:54:12;16.50;99.90
27226;DHT22;14732;51.074;3.788;2022-09-24T07:56:38;16.50;99.90
27226;DHT22;14732;51.074;3.788;2022-09-24T07:59:04;16.50;99.90
27226;DHT22;14732;51.074;3.788;2022-09-24T08:01:35;16.50;99.90
27226;DHT22;14732;51.074;3.788;2022-09-24T08:04:02;16.40;99.90
27226;DHT22;14732;51.074;3.788;2022-09-24T08:06:29;16.40;99.90
27226;DHT22;14732;51.074;3.788;2022-09-24T08:08:58;16.40;99.90
27226;DHT22;14732;51.074;3.788;2022-09-24T08:11:23;16.40;99.90
27226;DHT22;14732;51.074;3.788;2022-09-24T08:13:50;16.40;99.90
27226;DHT22;14732;51.074;3.788;2022-09-24T08:16:16;16.30;99.90
27226;DHT22;14732;51.074;3.788;2022-09-24T08:18:42;16.40;99.90
27226;DHT22;14732;51.074;3.788;2022-09-24T08:21:10;16.30;99.90
27226;DHT22;14732;51.074;3.788;2022-09-24T08:23:37;16.30;99.90
27226;DHT22;14732;51.074;3.788;2022-09-24T08:26:04;16.40;99.90
27226;DHT22;14732;51.074;3.788;2022-09-24T08:28:30;16.50;99.90
27226;DHT22;14732;51.074;3.788;2022-09-24T08:31:00;16.60;99.90
27226;DHT22;14732;51.074;3.788;2022-09-24T08:33:27;16.70;99.90
27226;DHT22;14732;51.074;3.788;2022-09-24T08:35:53;16.60;99.90
27226;DHT22;14732;51.074;3.788;2022-09-24T08:38:19;16.60;99.90
27226;DHT22;14732;51.074;3.788;2022-09-24T08:41:12;16.40;99.90
27226;DHT22;14732;51.074;3.788;2022-09-24T08:44:08;16.30;99.90
27226;DHT22;14732;51.074;3.788;2022-09-24T08:46:39;16.40;99.90
27226;DHT22;14732;51.074;3.788;2022-09-24T08:49:30;16.50;99.90
27226;DHT22;14732;51.074;3.788;2022-09-24T08:54:44;16.50;99.90
27226;DHT22;14732;51.074;3.788;2022-09-24T08:57:13;16.60;99.90
27226;DHT22;14732;51.074;3.788;2022-09-24T08:59:43;16.60;99.90
27226;DHT22;14732;51.074;3.788;2022-09-24T09:10:43;16.50;99.90
27226;DHT22;14732;51.074;3.788;2022-09-24T09:13:19;16.50;99.90
27226;DHT22;14732;51.074;3.788;2022-09-24T09:15:52;16.50;99.90
27226;DHT22;14732;51.074;3.788;2022-09-24T09:18:25;16.50;99.90
27226;DHT22;14732;51.074;3.788;2022-09-24T09:20:55;16.60;99.90
27226;DHT22;14732;51.074;3.788;2022-09-24T09:23:38;16.80;99.90
27226;DHT22;14732;51.074;3.788;2022-09-24T09:26:09;16.80;99.90
27226;DHT22;14732;51.074;3.788;2022-09-24T09:28:36;16.90;99.90
27226;DHT22;14732;51.074;3.788;2022-09-24T09:42:32;17.00;99.90
27226;DHT22;14732;51.074;3.788;2022-09-24T09:45:34;17.00;99.90
27226;DHT22;14732;51.074;3.788;2022-09-24T09:48:02;17.20;99.90
27226;DHT22;14732;51.074;3.788;2022-09-24T09:50:38;17.20;99.90
27226;DHT22;14732;51.074;3.788;2022-09-24T09:53:05;17.20;99.90
27226;DHT22;14732;51.074;3.788;2022-09-24T09:55:35;17.50;99.90
27226;DHT22;14732;51.074;3.788;2022-09-24T09:58:18;17.40;99.90
27226;DHT22;14732;51.074;3.788;2022-09-24T10:00:45;17.50;99.90
27226;DHT22;14732;51.074;3.788;2022-09-24T10:06:26;17.00;99.90
27226;DHT22;14732;51.074;3.788;2022-09-24T10:08:53;17.10;99.90
27226;DHT22;14732;51.074;3.788;2022-09-24T10:11:21;17.10;99.90
27226;DHT22;14732;51.074;3.788;2022-09-24T10:13:49;17.20;99.90
27226;DHT22;14732;51.074;3.788;2022-09-24T10:16:25;17.20;99.90
27226;DHT22;14732;51.074;3.788;2022-09-24T10:18:54;17.30;99.90
27226;DHT22;14732;51.074;3.788;2022-09-24T10:21:31;17.40;99.90
27226;DHT22;14732;51.074;3.788;2022-09-24T10:24:01;17.30;99.90
27226;DHT22;14732;51.074;3.788;2022-09-24T10:26:36;17.40;99.90
27226;DHT22;14732;51.074;3.788;2022-09-24T10:29:03;17.50;99.90
27226;DHT22;14732;51.074;3.788;2022-09-24T10:31:47;17.80;99.90
27226;DHT22;14732;51.074;3.788;2022-09-24T10:34:27;17.90;99.90
27226;DHT22;14732;51.074;3.788;2022-09-24T10:37:11;17.50;99.90
27226;DHT22;14732;51.074;3.788;2022-09-24T10:39:37;17.50;99.90
27226;DHT22;14732;51.074;3.788;2022-09-24T10:42:03;17.60;99.90
27226;DHT22;14732;51.074;3.788;2022-09-24T10:44:35;17.60;99.90
27226;DHT22;14732;51.074;3.788;2022-09-24T10:47:21;17.60;99.90
27226;DHT22;14732;51.074;3.788;2022-09-24T11:00:21;17.50;99.90
27226;DHT22;14732;51.074;3.788;2022-09-24T11:05:53;17.10;99.90
27226;DHT22;14732;51.074;3.788;2022-09-24T11:19:52;17.60;99.90
27226;DHT22;14732;51.074;3.788;2022-09-24T11:22:45;17.80;99.90
27226;DHT22;14732;51.074;3.788;2022-09-24T11:39:25;17.80;99.90
27226;DHT22;14732;51.074;3.788;2022-09-24T11:47:41;18.40;99.90
27226;DHT22;14732;51.074;3.788;2022-09-24T11:50:22;18.50;99.90
27226;DHT22;14732;51.074;3.788;2022-09-24T11:53:02;18.70;99.90
27226;DHT22;14732;51.074;3.788;2022-09-24T11:55:54;18.70;99.90
27226;DHT22;14732;51.074;3.788;2022-09-24T11:58:37;18.70;99.90
27226;DHT22;14732;51.074;3.788;2022-09-24T12:01:29;18.50;99.90
27226;DHT22;14732;51.074;3.788;2022-09-24T12:07:04;18.80;99.90
27226;DHT22;14732;51.074;3.788;2022-09-24T12:09:36;18.60;99.90
27226;DHT22;14732;51.074;3.788;2022-09-24T12:12:08;18.80;99.90
27226;DHT22;14732;51.074;3.788;2022-09-24T12:17:16;18.70;99.90
27226;DHT22;14732;51.074;3.788;2022-09-24T12:20:00;18.40;99.90
27226;DHT22;14732;51.074;3.788;2022-09-24T12:22:28;18.40;99.90
27226;DHT22;14732;51.074;3.788;2022-09-24T12:24:58;18.40;99.90
27226;DHT22;14732;51.074;3.788;2022-09-24T12:27:35;18.20;99.90
27226;DHT22;14732;51.074;3.788;2022-09-24T12:38:45;17.90;99.90
27226;DHT22;14732;51.074;3.788;2022-09-24T12:41:30;17.60;99.90
27226;DHT22;14732;51.074;3.788;2022-09-24T12:46:41;17.60;99.90
27226;DHT22;14732;51.074;3.788;2022-09-24T12:51:54;17.40;99.90
27226;DHT22;14732;51.074;3.788;2022-09-24T12:54:36;17.50;99.90
27226;DHT22;14732;51.074;3.788;2022-09-24T12:57:10;17.40;99.90
27226;DHT22;14732;51.074;3.788;2022-09-24T12:59:52;17.60;99.90
27226;DHT22;14732;51.074;3.788;2022-09-24T13:02:22;17.90;99.90
27226;DHT22;14732;51.074;3.788;2022-09-24T13:07:34;17.80;99.90
27226;DHT22;14732;51.074;3.788;2022-09-24T13:10:30;17.60;99.90
27226;DHT22;14732;51.074;3.788;2022-09-24T13:12:58;17.60;99.90
27226;DHT22;14732;51.074;3.788;2022-09-24T13:15:34;17.50;99.90
27226;DHT22;14732;51.074;3.788;2022-09-24T13:18:04;17.50;99.90
27226;DHT22;14732;51.074;3.788;2022-09-24T13:20:32;17.50;99.90
27226;DHT22;14732;51.074;3.788;2022-09-24T13:25:55;17.50;99.90
27226;DHT22;14732;51.074;3.788;2022-09-24T13:28:27;17.30;99.90
27226;DHT22;14732;51.074;3.788;2022-09-24T13:33:45;17.10;99.90
27226;DHT22;14732;51.074;3.788;2022-09-24T13:38:50;16.90;99.90
27226;DHT22;14732;51.074;3.788;2022-09-24T13:41:43;17.20;99.90
27226;DHT22;14732;51.074;3.788;2022-09-24T13:46:45;17.30;99.90
27226;DHT22;14732;51.074;3.788;2022-09-24T13:49:16;17.20;99.90
27226;DHT22;14732;51.074;3.788;2022-09-24T13:51:46;17.40;99.90
27226;DHT22;14732;51.074;3.788;2022-09-24T13:54:24;17.50;99.90
27226;DHT22;14732;51.074;3.788;2022-09-24T13:57:23;17.50;99.90
27226;DHT22;14732;51.074;3.788;2022-09-24T13:59:59;17.60;99.90
27226;DHT22;14732;51.074;3.788;2022-09-24T14:02:26;17.60;99.90
27226;DHT22;14732;51.074;3.788;2022-09-24T14:04:57;17.70;99.90
27226;DHT22;14732;51.074;3.788;2022-09-24T14:07:26;17.70;99.90
27226;DHT22;14732;51.074;3.788;2022-09-24T14:10:06;17.60;99.90
27226;DHT22;14732;51.074;3.788;2022-09-24T14:12:37;17.70;99.90
27226;DHT22;14732;51.074;3.788;2022-09-24T14:15:13;17.60;99.90
27226;DHT22;14732;51.074;3.788;2022-09-24T14:17:38;17.50;99.90
27226;DHT22;14732;51.074;3.788;2022-09-24T14:20:05;17.50;99.90
27226;DHT22;14732;51.074;3.788;2022-09-24T14:22:39;17.60;99.90
27226;DHT22;14732;51.074;3.788;2022-09-24T14:25:09;17.80;99.90
27226;DHT22;14732;51.074;3.788;2022-09-24T14:27:49;17.80;99.90
27226;DHT22;14732;51.074;3.788;2022-09-24T14:30:24;17.90;99.90
27226;DHT22;14732;51.074;3.788;2022-09-24T14:32:52;17.70;99.90
27226;DHT22;14732;51.074;3.788;2022-09-24T14:35:39;17.60;99.90
27226;DHT22;14732;51.074;3.788;2022-09-24T14:38:18;17.60;99.90
27226;DHT22;14732;51.074;3.788;2022-09-24T14:40:52;17.40;99.90
27226;DHT22;14732;51.074;3.788;2022-09-24T14:43:24;17.40;99.90
27226;DHT22;14732;51.074;3.788;2022-09-24T14:46:01;17.70;99.90
27226;DHT22;14732;51.074;3.788;2022-09-24T14:48:32;17.70;99.90
27226;DHT22;14732;51.074;3.788;2022-09-24T14:50:58;17.80;99.90
27226;DHT22;14732;51.074;3.788;2022-09-24T14:55:55;17.60;99.90
27226;DHT22;14732;51.074;3.788;2022-09-24T14:58:23;17.50;99.90
27226;DHT22;14732;51.074;3.788;2022-09-24T15:00:51;17.40;99.90
27226;DHT22;14732;51.074;3.788;2022-09-24T15:04:14;17.50;99.90
27226;DHT22;14732;51.074;3.788;2022-09-24T15:06:21;17.60;99.90
27226;DHT22;14732;51.074;3.788;2022-09-24T15:08:50;17.70;99.90
27226;DHT22;14732;51.074;3.788;2022-09-24T15:11:17;17.90;99.90
27226;DHT22;14732;51.074;3.788;2022-09-24T15:13:43;17.90;99.90
27226;DHT22;14732;51.074;3.788;2022-09-24T15:21:40;18.00;99.90
27226;DHT22;14732;51.074;3.788;2022-09-24T15:24:05;18.00;99.90
27226;DHT22;14732;51.074;3.788;2022-09-24T15:26:33;18.00;99.90
27226;DHT22;14732;51.074;3.788;2022-09-24T15:29:03;18.00;99.90
27226;DHT22;14732;51.074;3.788;2022-09-24T15:31:28;17.90;99.90
27226;DHT22;14732;51.074;3.788;2022-09-24T15:33:54;18.00;99.90
27226;DHT22;14732;51.074;3.788;2022-09-24T15:36:23;18.00;99.90
27226;DHT22;14732;51.074;3.788;2022-09-24T15:38:50;18.00;99.90
27226;DHT22;14732;51.074;3.788;2022-09-24T15:41:17;18.00;99.90
27226;DHT22;14732;51.074;3.788;2022-09-24T15:43:43;18.20;99.90
27226;DHT22;14732;51.074;3.788;2022-09-24T15:46:09;18.10;99.90
27226;DHT22;14732;51.074;3.788;2022-09-24T15:48:35;18.20;99.90
27226;DHT22;14732;51.074;3.788;2022-09-24T15:51:01;18.00;99.90
27226;DHT22;14732;51.074;3.788;2022-09-24T15:53:28;17.80;99.90
27226;DHT22;14732;51.074;3.788;2022-09-24T15:55:58;17.60;99.90
27226;DHT22;14732;51.074;3.788;2022-09-24T15:58:25;17.80;99.90
27226;DHT22;14732;51.074;3.788;2022-09-24T16:00:51;17.80;99.90
27226;DHT22;14732;51.074;3.788;2022-09-24T16:03:22;17.90;99.90
27226;DHT22;14732;51.074;3.788;2022-09-24T16:05:49;17.80;99.90
27226;DHT22;14732;51.074;3.788;2022-09-24T16:08:15;17.90;99.90
27226;DHT22;14732;51.074;3.788;2022-09-24T16:10:41;17.80;99.90
27226;DHT22;14732;51.074;3.788;2022-09-24T16:13:08;17.90;99.90
27226;DHT22;14732;51.074;3.788;2022-09-24T16:15:34;18.00;99.90
27226;DHT22;14732;51.074;3.788;2022-09-24T16:18:00;18.10;99.90
27226;DHT22;14732;51.074;3.788;2022-09-24T16:20:26;18.00;99.90
27226;DHT22;14732;51.074;3.788;2022-09-24T16:22:52;17.90;99.90
27226;DHT22;14732;51.074;3.788;2022-09-24T16:25:17;17.90;99.90
27226;DHT22;14732;51.074;3.788;2022-09-24T16:27:43;17.80;99.90
27226;DHT22;14732;51.074;3.788;2022-09-24T16:30:09;17.90;99.90
27226;DHT22;14732;51.074;3.788;2022-09-24T16:32:35;17.90;99.90
27226;DHT22;14732;51.074;3.788;2022-09-24T16:35:01;17.60;99.90
27226;DHT22;14732;51.074;3.788;2022-09-24T16:37:27;17.20;99.90
27226;DHT22;14732;51.074;3.788;2022-09-24T16:39:52;17.10;99.90
27226;DHT22;14732;51.074;3.788;2022-09-24T16:42:19;17.10;99.90
27226;DHT22;14732;51.074;3.788;2022-09-24T16:44:45;17.00;99.90
27226;DHT22;14732;51.074;3.788;2022-09-24T16:47:11;16.90;99.90
27226;DHT22;14732;51.074;3.788;2022-09-24T16:49:40;17.10;99.90
27226;DHT22;14732;51.074;3.788;2022-09-24T16:52:06;17.00;99.90
27226;DHT22;14732;51.074;3.788;2022-09-24T16:54:32;17.10;99.90
27226;DHT22;14732;51.074;3.788;2022-09-24T16:56:57;17.00;99.90
27226;DHT22;14732;51.074;3.788;2022-09-24T16:59:23;17.00;99.90
27226;DHT22;14732;51.074;3.788;2022-09-24T17:01:49;17.10;99.90
27226;DHT22;14732;51.074;3.788;2022-09-24T17:04:14;16.90;99.90
27226;DHT22;14732;51.074;3.788;2022-09-24T17:06:41;16.70;99.90
27226;DHT22;14732;51.074;3.788;2022-09-24T17:09:09;16.60;99.90
27226;DHT22;14732;51.074;3.788;2022-09-24T17:11:54;16.60;99.90
27226;DHT22;14732;51.074;3.788;2022-09-24T17:14:23;16.50;99.90
27226;DHT22;14732;51.074;3.788;2022-09-24T17:16:48;16.60;99.90
27226;DHT22;14732;51.074;3.788;2022-09-24T17:19:15;16.80;99.90
27226;DHT22;14732;51.074;3.788;2022-09-24T17:21:42;16.60;99.90
27226;DHT22;14732;51.074;3.788;2022-09-24T17:24:11;16.30;99.90
27226;DHT22;14732;51.074;3.788;2022-09-24T17:26:37;16.40;99.90
27226;DHT22;14732;51.074;3.788;2022-09-24T17:29:03;16.30;99.90
27226;DHT22;14732;51.074;3.788;2022-09-24T17:31:29;16.30;99.90
27226;DHT22;14732;51.074;3.788;2022-09-24T17:33:56;16.50;99.90
27226;DHT22;14732;51.074;3.788;2022-09-24T17:36:23;16.60;99.90
27226;DHT22;14732;51.074;3.788;2022-09-24T17:38:49;16.60;99.90
27226;DHT22;14732;51.074;3.788;2022-09-24T17:41:17;16.20;99.90
27226;DHT22;14732;51.074;3.788;2022-09-24T17:43:43;16.00;99.90
27226;DHT22;14732;51.074;3.788;2022-09-24T17:46:14;16.00;99.90
27226;DHT22;14732;51.074;3.788;2022-09-24T17:48:43;15.90;99.90
27226;DHT22;14732;51.074;3.788;2022-09-24T17:51:11;15.80;99.90
27226;DHT22;14732;51.074;3.788;2022-09-24T17:53:38;15.80;99.90
27226;DHT22;14732;51.074;3.788;2022-09-24T17:56:05;15.90;99.90
27226;DHT22;14732;51.074;3.788;2022-09-24T17:58:34;15.90;99.90